Time;durP1;ratioP1;P1;durP2;ratioP2;P2;SDS_P1;SDS_P2;PMS_P1;PMS_P2;Temp;Humidity;BMP_temperature;BMP_pressure;BME280_temperature;BME280_humidity;BME280_pressure;Samples;Min_cycle;Max_cycle;Signal;HPM_P1;HPM_P2
2022/07/21 00:00:25;;;;;;;9.35;6.85;;;;;;;;;;6150978;23;20087;-47
2022/07/21 00:02:52;;;;;;;7.15;6.18;;;;;;;;;;6149890;23;20045;-48
2022/07/21 00:05:20;;;;;;;9.77;7.05;;;;;;;;;;6149544;23;20403;-48
2022/07/21 00:07:47;;;;;;;11.23;6.47;;;;;;;;;;6149330;23;20021;-50
2022/07/21 00:10:14;;;;;;;;;;;;;;;;;;6150811;23;20025;-49
2022/07/21 00:12:42;;;;;;;7.78;6.38;;;;;;;;;;6150450;23;20357;-50
2022/07/21 00:15:10;;;;;;;9.18;6.20;;;;;;;;;;6150054;23;20045;-50
2022/07/21 00:17:37;;;;;;;13.80;7.13;;;;;;;;;;6148988;23;20029;-48
2022/07/21 00:20:05;;;;;;;9.20;6.68;;;;;;;;;;6150710;23;20025;-48
2022/07/21 00:22:33;;;;;;;10.65;6.85;;;;;;;;;;6149394;23;20029;-49
2022/07/21 00:25:00;;;;;;;11.52;7.07;;;;;;;;;;6150917;23;20030;-50
2022/07/21 00:27:27;;;;;;;11.52;6.95;;;;;;;;;;6149173;23;20021;-45
2022/07/21 00:29:57;;;;;;;8.25;6.68;;;;;;;;;;6149645;23;20057;-52
2022/07/21 00:32:24;;;;;;;10.35;7.10;;;;;;;;;;6149974;23;20032;-50
2022/07/21 00:34:51;;;;;;;;;;;;;;;;;;6150912;23;20029;-49
2022/07/21 00:37:19;;;;;;;9.07;6.93;;;;;;;;;;6149837;23;19944;-47
2022/07/21 00:39:46;;;;;;;8.63;7.32;;;;;;;;;;6148984;23;20091;-49
2022/07/21 00:42:23;;;;;;;11.77;7.35;;;;;;;;;;6150179;23;20068;-52
2022/07/21 00:44:50;;;;;;;10.60;7.15;;;;;;;;;;6149906;23;20380;-47
2022/07/21 00:47:18;;;;;;;;;;;;;;;;;;6150450;23;20025;-51
2022/07/21 00:49:45;;;;;;;8.98;7.28;;;;;;;;;;6148318;23;19924;-48
2022/07/21 00:52:12;;;;;;;9.02;6.72;;;;;;;;;;6148820;23;20471;-47
2022/07/21 00:54:40;;;;;;;13.80;7.68;;;;;;;;;;6149630;23;20044;-52
2022/07/21 00:57:07;;;;;;;9.02;7.40;;;;;;;;;;6149325;23;20028;-57
2022/07/21 00:59:34;;;;;;;8.90;7.18;;;;;;;;;;6147833;23;20093;-56
2022/07/21 01:02:02;;;;;;;11.18;7.40;;;;;;;;;;6149504;23;20526;-56
2022/07/21 01:04:29;;;;;;;10.27;7.57;;;;;;;;;;6149148;23;20027;-54
2022/07/21 01:06:56;;;;;;;;;;;;;;;;;;6149766;23;20097;-56
2022/07/21 01:09:24;;;;;;;11.63;7.40;;;;;;;;;;6149165;23;20519;-54
2022/07/21 01:11:51;;;;;;;11.10;6.88;;;;;;;;;;6150231;23;20077;-57
2022/07/21 01:14:19;;;;;;;9.35;7.05;;;;;;;;;;6149617;23;20026;-58
2022/07/21 01:16:46;;;;;;;12.27;7.63;;;;;;;;;;6149495;23;20088;-58
2022/07/21 01:19:14;;;;;;;13.00;7.55;;;;;;;;;;6149261;23;20108;-58
2022/07/21 01:21:43;;;;;;;10.85;7.43;;;;;;;;;;6149689;23;20025;-58
2022/07/21 01:24:10;;;;;;;11.40;7.43;;;;;;;;;;6150304;23;20036;-58
2022/07/21 01:26:41;;;;;;;11.63;7.20;;;;;;;;;;6147813;23;20022;-58
2022/07/21 01:29:10;;;;;;;10.57;7.10;;;;;;;;;;6148688;23;20022;-57
2022/07/21 01:31:38;;;;;;;11.57;7.07;;;;;;;;;;6149649;23;20025;-55
2022/07/21 01:34:05;;;;;;;11.50;7.63;;;;;;;;;;6148952;23;20030;-58
2022/07/21 01:36:33;;;;;;;10.82;7.70;;;;;;;;;;6149050;23;20080;-55
2022/07/21 01:41:46;;;;;;;9.77;7.53;;;;;;;;;;6150127;23;19916;-59
2022/07/21 01:44:14;;;;;;;13.75;7.40;;;;;;;;;;6148931;23;20026;-58
2022/07/21 01:46:43;;;;;;;;;;;;;;;;;;6150347;23;20029;-57
2022/07/21 01:49:12;;;;;;;14.10;7.63;;;;;;;;;;6149323;23;19940;-52
2022/07/21 01:51:40;;;;;;;12.35;7.45;;;;;;;;;;6149624;23;20072;-60
2022/07/21 01:54:07;;;;;;;;;;;;;;;;;;6149386;23;20022;-54
2022/07/21 01:56:35;;;;;;;11.27;7.80;;;;;;;;;;6149902;23;19921;-53
2022/07/21 01:59:02;;;;;;;11.43;8.13;;;;;;;;;;6151916;23;20029;-50
2022/07/21 02:01:30;;;;;;;10.57;7.82;;;;;;;;;;6151609;23;20083;-54
2022/07/21 02:04:00;;;;;;;11.80;7.90;;;;;;;;;;6150319;23;20048;-51
2022/07/21 02:06:29;;;;;;;11.25;7.68;;;;;;;;;;6152257;23;20043;-53
2022/07/21 02:08:56;;;;;;;11.55;8.75;;;;;;;;;;6151149;23;20029;-59
2022/07/21 02:11:24;;;;;;;9.90;8.18;;;;;;;;;;6151565;23;20035;-55
2022/07/21 02:13:51;;;;;;;9.68;7.28;;;;;;;;;;6150949;23;20028;-46
2022/07/21 02:16:18;;;;;;;17.70;8.15;;;;;;;;;;6149807;23;20026;-50
2022/07/21 02:18:46;;;;;;;12.80;7.50;;;;;;;;;;6150105;23;20018;-52
2022/07/21 02:21:14;;;;;;;11.05;8.43;;;;;;;;;;6151358;23;20025;-49
2022/07/21 02:23:41;;;;;;;;;;;;;;;;;;6150857;23;20033;-50
2022/07/21 02:26:08;;;;;;;10.02;7.85;;;;;;;;;;6151796;23;19920;-51
2022/07/21 02:28:36;;;;;;;;;;;;;;;;;;6124907;23;20457;-57
2022/07/21 02:31:03;;;;;;;10.98;8.18;;;;;;;;;;6151339;23;19967;-50
2022/07/21 02:33:31;;;;;;;11.05;7.93;;;;;;;;;;6151908;23;20060;-49
2022/07/21 02:35:58;;;;;;;;;;;;;;;;;;6151412;23;20084;-52
2022/07/21 02:38:26;;;;;;;14.50;8.52;;;;;;;;;;6150445;23;19916;-49
2022/07/21 02:40:53;;;;;;;14.57;8.48;;;;;;;;;;6150933;23;20467;-51
2022/07/21 02:43:23;;;;;;;11.75;8.57;;;;;;;;;;6150527;23;20032;-49
2022/07/21 02:45:51;;;;;;;14.23;8.88;;;;;;;;;;6150913;23;20025;-50
2022/07/21 02:48:19;;;;;;;13.30;8.63;;;;;;;;;;6125552;23;20900;-51
2022/07/21 02:50:46;;;;;;;14.38;9.20;;;;;;;;;;6150203;23;20483;-57
2022/07/21 02:53:22;;;;;;;12.90;8.43;;;;;;;;;;6148895;23;20021;-60
2022/07/21 02:55:52;;;;;;;13.85;9.18;;;;;;;;;;6151612;23;20026;-60
2022/07/21 02:58:23;;;;;;;15.52;8.77;;;;;;;;;;6151064;23;20021;-59
2022/07/21 03:00:52;;;;;;;14.10;8.95;;;;;;;;;;6151029;23;20414;-61
2022/07/21 03:03:20;;;;;;;11.95;8.95;;;;;;;;;;6150248;23;20446;-57
2022/07/21 03:05:48;;;;;;;11.20;8.70;;;;;;;;;;6151119;23;20021;-59
2022/07/21 03:08:15;;;;;;;;;;;;;;;;;;6149857;23;20025;-58
2022/07/21 03:10:42;;;;;;;12.02;8.55;;;;;;;;;;6150826;23;20375;-48
2022/07/21 03:13:10;;;;;;;11.90;8.77;;;;;;;;;;6150569;23;20096;-52
2022/07/21 03:15:37;;;;;;;;;;;;;;;;;;6151951;23;20080;-52
2022/07/21 03:18:05;;;;;;;11.63;8.90;;;;;;;;;;6150350;23;19923;-49
2022/07/21 03:20:32;;;;;;;;;;;;;;;;;;6150385;23;20389;-49
2022/07/21 03:22:59;;;;;;;17.10;8.38;;;;;;;;;;6150457;23;19924;-51
2022/07/21 03:25:26;;;;;;;12.95;8.85;;;;;;;;;;6150598;23;20375;-59
2022/07/21 03:27:54;;;;;;;23.08;8.80;;;;;;;;;;6151096;23;20022;-52
2022/07/21 03:30:21;;;;;;;;;;;;;;;;;;6150323;23;20057;-49
2022/07/21 03:32:49;;;;;;;14.77;8.75;;;;;;;;;;6150639;23;19920;-50
2022/07/21 03:35:17;;;;;;;15.48;9.00;;;;;;;;;;6150528;23;20041;-50
2022/07/21 03:37:45;;;;;;;14.40;9.68;;;;;;;;;;6151456;23;20087;-50
2022/07/21 03:40:13;;;;;;;11.68;8.90;;;;;;;;;;6150624;23;20076;-49
2022/07/21 03:42:41;;;;;;;11.55;8.63;;;;;;;;;;6150730;23;20025;-50
2022/07/21 03:45:09;;;;;;;12.48;8.60;;;;;;;;;;6150514;23;20076;-55
2022/07/21 03:47:36;;;;;;;12.02;9.90;;;;;;;;;;6148794;23;20480;-53
2022/07/21 03:50:04;;;;;;;17.02;9.38;;;;;;;;;;6124856;23;20029;-52
2022/07/21 03:52:31;;;;;;;11.93;9.40;;;;;;;;;;6149835;23;20045;-51
2022/07/21 03:55:08;;;;;;;14.63;8.70;;;;;;;;;;6150926;23;20351;-53
2022/07/21 03:57:51;;;;;;;12.70;9.20;;;;;;;;;;6149196;23;20040;-53
2022/07/21 04:00:23;;;;;;;13.65;9.43;;;;;;;;;;6149554;23;20084;-49
2022/07/21 04:02:50;;;;;;;11.32;9.02;;;;;;;;;;6149443;23;20025;-51
2022/07/21 04:05:18;;;;;;;15.23;9.93;;;;;;;;;;6150422;23;20127;-59
2022/07/21 04:07:47;;;;;;;14.98;9.95;;;;;;;;;;6150053;23;20475;-54
2022/07/21 04:10:19;;;;;;;12.07;9.40;;;;;;;;;;6150797;23;20026;-55
2022/07/21 04:12:47;;;;;;;13.15;9.00;;;;;;;;;;6148708;23;20017;-54
2022/07/21 04:15:15;;;;;;;12.45;8.73;;;;;;;;;;6150988;23;20029;-57
2022/07/21 04:17:42;;;;;;;12.07;8.82;;;;;;;;;;6149770;23;20479;-57
2022/07/21 04:20:10;;;;;;;12.70;9.52;;;;;;;;;;6150270;23;20025;-55
2022/07/21 04:22:38;;;;;;;11.07;8.70;;;;;;;;;;6149060;23;20795;-50
2022/07/21 04:25:05;;;;;;;;;;;;;;;;;;6150698;23;20029;-58
2022/07/21 04:27:32;;;;;;;11.48;9.43;;;;;;;;;;6149754;23;19925;-58
2022/07/21 04:30:00;;;;;;;14.55;9.00;;;;;;;;;;6149995;23;20022;-59
2022/07/21 04:32:27;;;;;;;11.80;8.77;;;;;;;;;;6149977;23;20022;-59
2022/07/21 04:34:55;;;;;;;10.20;8.85;;;;;;;;;;6149329;23;20029;-58
2022/07/21 04:37:22;;;;;;;11.60;9.85;;;;;;;;;;6150885;23;20404;-59
2022/07/21 04:39:49;;;;;;;14.52;8.80;;;;;;;;;;6148684;23;20022;-59
2022/07/21 04:42:19;;;;;;;13.13;8.90;;;;;;;;;;6150066;23;20100;-59
2022/07/21 04:44:47;;;;;;;15.68;8.68;;;;;;;;;;6149674;23;20030;-56
2022/07/21 04:47:15;;;;;;;11.55;9.38;;;;;;;;;;6150621;23;20025;-57
2022/07/21 04:49:42;;;;;;;13.65;9.80;;;;;;;;;;6148997;23;20025;-60
2022/07/21 04:52:10;;;;;;;17.42;8.60;;;;;;;;;;6149574;23;20045;-58
2022/07/21 04:54:37;;;;;;;11.55;8.93;;;;;;;;;;6148978;23;20030;-59
2022/07/21 04:57:05;;;;;;;10.93;9.00;;;;;;;;;;6149656;23;20022;-58
2022/07/21 04:59:33;;;;;;;14.85;8.90;;;;;;;;;;6148433;23;20033;-55
2022/07/21 05:02:01;;;;;;;18.08;8.75;;;;;;;;;;6149408;23;20022;-60
2022/07/21 05:04:28;;;;;;;12.60;8.77;;;;;;;;;;6149476;23;20463;-50
2022/07/21 05:06:56;;;;;;;;;;;;;;;;;;6150731;23;20092;-47
2022/07/21 05:09:23;;;;;;;12.65;8.93;;;;;;;;;;6148991;23;19925;-54
2022/07/21 05:11:50;;;;;;;10.85;8.70;;;;;;;;;;6149811;23;20021;-53
2022/07/21 05:14:17;;;;;;;14.52;8.38;;;;;;;;;;6148817;23;20356;-52
2022/07/21 05:16:45;;;;;;;11.20;8.75;;;;;;;;;;6150111;23;20052;-48
2022/07/21 05:19:12;;;;;;;;;;;;;;;;;;6150149;23;20087;-49
2022/07/21 05:21:40;;;;;;;11.32;8.05;;;;;;;;;;6150016;23;19921;-53
2022/07/21 05:24:08;;;;;;;11.13;8.60;;;;;;;;;;6148258;23;20080;-54
2022/07/21 05:26:36;;;;;;;10.32;8.73;;;;;;;;;;6149126;23;20076;-52
2022/07/21 05:29:03;;;;;;;14.60;9.27;;;;;;;;;;6149159;23;20072;-52
2022/07/21 05:31:31;;;;;;;12.93;9.85;;;;;;;;;;6149312;23;20080;-54
2022/07/21 05:33:58;;;;;;;;;;;;;;;;;;6151317;23;20116;-51
2022/07/21 05:36:25;;;;;;;14.60;9.02;;;;;;;;;;6150241;23;20293;-54
2022/07/21 05:38:53;;;;;;;11.93;8.77;;;;;;;;;;6149927;23;20411;-59
2022/07/21 05:41:21;;;;;;;18.88;10.15;;;;;;;;;;6149267;23;20021;-52
2022/07/21 05:43:48;;;;;;;;;;;;;;;;;;6150401;23;20353;-57
2022/07/21 05:46:15;;;;;;;14.98;8.73;;;;;;;;;;6149669;23;20334;-58
2022/07/21 05:48:43;;;;;;;12.50;9.52;;;;;;;;;;6148421;23;20359;-59
2022/07/21 05:51:10;;;;;;;11.20;8.48;;;;;;;;;;6148523;23;20068;-59
2022/07/21 05:53:44;;;;;;;10.60;8.55;;;;;;;;;;6124540;23;20025;-56
2022/07/21 05:56:12;;;;;;;11.07;9.40;;;;;;;;;;6149251;23;20049;-58
2022/07/21 05:58:39;;;;;;;11.15;9.15;;;;;;;;;;6148765;23;20472;-53
2022/07/21 06:01:09;;;;;;;12.38;9.57;;;;;;;;;;6149300;23;20033;-58
2022/07/21 06:03:37;;;;;;;10.48;9.00;;;;;;;;;;6149510;23;20021;-52
2022/07/21 06:06:05;;;;;;;12.82;9.15;;;;;;;;;;6149836;23;20104;-59
2022/07/21 06:08:32;;;;;;;17.70;9.50;;;;;;;;;;6148624;23;20084;-58
2022/07/21 06:10:59;;;;;;;11.63;8.32;;;;;;;;;;6149912;23;20363;-59
2022/07/21 06:13:27;;;;;;;10.90;8.88;;;;;;;;;;6149233;23;20060;-59
2022/07/21 06:15:54;;;;;;;16.10;9.30;;;;;;;;;;6149487;23;20729;-57
2022/07/21 06:18:21;;;;;;;10.77;9.13;;;;;;;;;;6149615;23;20534;-56
2022/07/21 06:20:49;;;;;;;14.15;9.20;;;;;;;;;;6149505;23;20060;-47
2022/07/21 06:23:17;;;;;;;10.48;8.77;;;;;;;;;;6149197;23;20025;-48
2022/07/21 06:25:44;;;;;;;11.38;9.23;;;;;;;;;;6150800;23;20095;-50
2022/07/21 06:28:12;;;;;;;11.65;8.50;;;;;;;;;;6150027;23;20022;-47
2022/07/21 06:30:39;;;;;;;10.75;8.98;;;;;;;;;;6123777;23;20468;-52
2022/07/21 06:33:06;;;;;;;;;;;;;;;;;;6150713;23;20493;-49
2022/07/21 06:35:34;;;;;;;11.88;9.10;;;;;;;;;;6150354;23;19920;-46
2022/07/21 06:38:02;;;;;;;12.52;8.90;;;;;;;;;;6149669;23;20049;-59
2022/07/21 06:40:31;;;;;;;12.02;8.98;;;;;;;;;;6148190;23;20021;-59
2022/07/21 06:42:59;;;;;;;13.10;9.25;;;;;;;;;;6149838;23;20087;-59
2022/07/21 06:45:46;;;;;;;12.73;9.65;;;;;;;;;;6149954;23;20028;-58
2022/07/21 06:48:14;;;;;;;12.15;9.10;;;;;;;;;;6149947;23;20032;-58
2022/07/21 06:50:41;;;;;;;14.27;9.05;;;;;;;;;;6151084;23;20053;-59
2022/07/21 06:53:08;;;;;;;;;;;;;;;;;;6151001;23;20022;-59
2022/07/21 06:55:36;;;;;;;16.77;9.23;;;;;;;;;;6149352;23;20242;-58
2022/07/21 06:58:03;;;;;;;;;;;;;;;;;;6151662;23;20026;-59
2022/07/21 07:00:30;;;;;;;14.05;9.30;;;;;;;;;;6150475;23;19920;-59
2022/07/21 07:02:59;;;;;;;11.88;8.73;;;;;;;;;;6150585;23;20096;-59
2022/07/21 07:05:28;;;;;;;;;;;;;;;;;;6150586;23;20499;-60
2022/07/21 07:07:55;;;;;;;11.73;8.88;;;;;;;;;;6151261;23;19967;-59
2022/07/21 07:10:23;;;;;;;15.35;9.82;;;;;;;;;;6150219;23;20481;-60
2022/07/21 07:12:50;;;;;;;15.23;9.18;;;;;;;;;;6150646;23;20026;-59
2022/07/21 07:15:37;;;;;;;13.82;8.52;;;;;;;;;;6149445;23;20736;-49
2022/07/21 07:18:04;;;;;;;;;;;;;;;;;;6151434;23;20057;-59
2022/07/21 07:20:32;;;;;;;12.77;8.52;;;;;;;;;;6150053;23;19929;-59
2022/07/21 07:22:59;;;;;;;14.20;9.05;;;;;;;;;;6151211;23;20022;-59
2022/07/21 07:25:26;;;;;;;;;;;;;;;;;;6148933;23;20029;-59
2022/07/21 07:27:57;;;;;;;12.40;8.93;;;;;;;;;;6149303;23;19920;-58
2022/07/21 07:30:24;;;;;;;14.57;9.40;;;;;;;;;;6150657;23;20048;-59
2022/07/21 07:32:51;;;;;;;11.95;9.75;;;;;;;;;;6151043;23;20032;-59
2022/07/21 07:35:19;;;;;;;12.98;9.48;;;;;;;;;;6149727;23;20490;-47
2022/07/21 07:37:46;;;;;;;20.60;9.57;;;;;;;;;;6151133;23;20080;-47
2022/07/21 07:40:15;;;;;;;14.90;9.27;;;;;;;;;;6150740;23;20096;-51
2022/07/21 07:42:43;;;;;;;16.17;9.35;;;;;;;;;;6150869;23;20104;-50
2022/07/21 07:45:10;;;;;;;;;;;;;;;;;;6150554;23;20025;-47
2022/07/21 07:47:38;;;;;;;13.55;10.07;;;;;;;;;;6150489;23;19932;-50
2022/07/21 07:50:06;;;;;;;10.77;8.95;;;;;;;;;;6149323;23;20765;-53
2022/07/21 07:52:34;;;;;;;12.35;9.65;;;;;;;;;;6150603;23;20041;-48
2022/07/21 07:55:04;;;;;;;15.07;9.98;;;;;;;;;;6149890;23;20080;-50
2022/07/21 07:57:34;;;;;;;11.93;9.20;;;;;;;;;;6151032;23;20021;-53
2022/07/21 08:00:03;;;;;;;13.15;9.45;;;;;;;;;;6151475;23;20052;-50
2022/07/21 08:02:47;;;;;;;15.35;10.18;;;;;;;;;;6151942;23;20022;-53
2022/07/21 08:05:14;;;;;;;12.52;8.85;;;;;;;;;;6151676;23;20025;-51
2022/07/21 08:07:41;;;;;;;13.52;9.55;;;;;;;;;;6151782;23;20026;-49
2022/07/21 08:10:09;;;;;;;12.32;10.10;;;;;;;;;;6151322;23;20025;-52
2022/07/21 08:12:57;;;;;;;15.43;9.93;;;;;;;;;;6151649;23;20022;-51
2022/07/21 08:15:30;;;;;;;13.25;9.65;;;;;;;;;;6151062;23;20040;-58
2022/07/21 08:17:58;;;;;;;;;;;;;;;;;;6151328;23;20029;-59
2022/07/21 08:20:25;;;;;;;15.02;9.40;;;;;;;;;;6150942;23;19916;-57
2022/07/21 08:22:52;;;;;;;17.80;10.13;;;;;;;;;;6151321;23;20028;-58
2022/07/21 08:25:19;;;;;;;19.40;10.20;;;;;;;;;;6150376;23;20072;-58
2022/07/21 08:27:47;;;;;;;;;;;;;;;;;;6151331;23;20022;-59
2022/07/21 08:30:14;;;;;;;11.38;9.25;;;;;;;;;;6150987;23;19921;-53
2022/07/21 08:32:42;;;;;;;12.95;9.13;;;;;;;;;;6151564;23;20022;-52
2022/07/21 08:35:09;;;;;;;14.95;10.10;;;;;;;;;;6150615;23;20080;-49
2022/07/21 08:37:36;;;;;;;;;;;;;;;;;;6151822;23;20026;-52
2022/07/21 08:40:04;;;;;;;13.15;9.45;;;;;;;;;;6150821;23;19963;-49
2022/07/21 08:42:32;;;;;;;11.65;9.93;;;;;;;;;;6151015;23;20100;-52
2022/07/21 08:44:59;;;;;;;13.48;9.98;;;;;;;;;;6149386;23;20045;-52
2022/07/21 08:47:27;;;;;;;14.10;9.70;;;;;;;;;;6151245;23;20067;-50
2022/07/21 08:49:55;;;;;;;11.93;9.15;;;;;;;;;;6151365;23;20029;-50
2022/07/21 08:52:22;;;;;;;16.00;10.55;;;;;;;;;;6150171;23;20029;-55
2022/07/21 08:54:49;;;;;;;14.32;10.05;;;;;;;;;;6151045;23;20080;-49
2022/07/21 08:57:17;;;;;;;15.75;9.93;;;;;;;;;;6151165;23;20033;-49
2022/07/21 08:59:44;;;;;;;10.63;9.48;;;;;;;;;;6150669;23;20053;-52
2022/07/21 09:02:27;;;;;;;12.13;9.15;;;;;;;;;;6150075;23;20034;-50
2022/07/21 09:04:55;;;;;;;13.05;9.57;;;;;;;;;;6150290;23;20037;-51
2022/07/21 09:07:23;;;;;;;13.73;9.88;;;;;;;;;;6151008;23;20080;-56
2022/07/21 09:10:00;;;;;;;13.88;9.50;;;;;;;;;;6124088;23;20085;-52
2022/07/21 09:12:28;;;;;;;10.38;9.02;;;;;;;;;;6150713;23;20052;-51
2022/07/21 09:15:14;;;;;;;15.32;10.25;;;;;;;;;;6150478;23;20029;-54
2022/07/21 09:17:42;;;;;;;13.57;9.18;;;;;;;;;;6150552;23;20060;-50
2022/07/21 09:20:30;;;;;;;15.53;9.40;;;;;;;;;;6150286;23;20104;-51
2022/07/21 09:23:08;;;;;;;14.48;9.65;;;;;;;;;;6151283;23;20245;-54
2022/07/21 09:25:40;;;;;;;11.93;9.52;;;;;;;;;;6150560;23;20036;-51
2022/07/21 09:28:11;;;;;;;16.05;8.95;;;;;;;;;;6151400;23;20032;-59
2022/07/21 09:30:51;;;;;;;12.55;8.98;;;;;;;;;;6150405;23;20096;-58
2022/07/21 09:33:19;;;;;;;14.45;8.68;;;;;;;;;;6150423;23;20430;-59
2022/07/21 09:36:01;;;;;;;16.30;8.90;;;;;;;;;;6150783;23;20072;-58
2022/07/21 09:38:29;;;;;;;12.68;8.43;;;;;;;;;;6150821;23;20057;-58
2022/07/21 09:41:04;;;;;;;12.75;8.18;;;;;;;;;;6149716;23;20029;-57
2022/07/21 09:43:41;;;;;;;10.35;7.80;;;;;;;;;;6151090;23;20100;-58
2022/07/21 09:46:13;;;;;;;11.10;7.88;;;;;;;;;;6150640;23;20060;-59
2022/07/21 09:48:42;;;;;;;9.90;7.65;;;;;;;;;;6150722;23;20104;-54
2022/07/21 09:51:19;;;;;;;11.95;7.43;;;;;;;;;;6149371;23;20072;-59
2022/07/21 09:53:50;;;;;;;15.18;7.60;;;;;;;;;;6150093;23;20463;-58
2022/07/21 09:56:18;;;;;;;13.27;7.60;;;;;;;;;;6123973;23;20032;-58
2022/07/21 09:58:46;;;;;;;16.50;8.65;;;;;;;;;;6150435;23;20031;-59
2022/07/21 10:01:14;;;;;;;8.80;7.53;;;;;;;;;;6150748;23;20022;-59
2022/07/21 10:03:45;;;;;;;11.13;7.38;;;;;;;;;;6150202;23;20021;-60
2022/07/21 10:06:14;;;;;;;11.35;7.55;;;;;;;;;;6148204;23;20464;-59
2022/07/21 10:08:42;;;;;;;13.85;7.40;;;;;;;;;;6149941;23;20349;-61
2022/07/21 10:11:11;;;;;;;11.85;7.60;;;;;;;;;;6150203;23;20018;-61
2022/07/21 10:13:45;;;;;;;12.50;7.47;;;;;;;;;;6150908;23;20029;-61
2022/07/21 10:16:12;;;;;;;12.50;7.85;;;;;;;;;;6151030;23;20072;-62
2022/07/21 10:19:00;;;;;;;27.02;7.13;;;;;;;;;;6151660;23;20029;-60
2022/07/21 10:21:46;;;;;;;8.43;7.22;;;;;;;;;;6151630;23;20025;-60
2022/07/21 10:24:14;;;;;;;13.80;7.28;;;;;;;;;;6151692;23;20364;-56
2022/07/21 10:27:01;;;;;;;8.38;6.47;;;;;;;;;;6152842;23;20022;-54
2022/07/21 10:29:48;;;;;;;10.18;6.90;;;;;;;;;;6151993;23;20025;-47
2022/07/21 10:32:16;;;;;;;12.95;7.18;;;;;;;;;;6152137;23;20040;-52
2022/07/21 10:34:44;;;;;;;8.73;6.78;;;;;;;;;;6152669;23;20375;-54
2022/07/21 10:37:11;;;;;;;8.68;6.50;;;;;;;;;;6153110;23;20030;-51
2022/07/21 10:39:39;;;;;;;13.68;6.68;;;;;;;;;;6151373;23;20022;-52
2022/07/21 10:42:16;;;;;;;9.77;6.72;;;;;;;;;;6151525;23;20022;-50
2022/07/21 10:44:46;;;;;;;11.60;6.03;;;;;;;;;;6151599;23;20474;-53
2022/07/21 10:47:19;;;;;;;13.95;6.30;;;;;;;;;;6152860;23;20022;-53
2022/07/21 10:49:52;;;;;;;9.20;6.20;;;;;;;;;;6151981;23;20344;-54
2022/07/21 10:52:35;;;;;;;10.07;6.70;;;;;;;;;;6151470;23;20403;-54
2022/07/21 10:55:28;;;;;;;8.40;5.78;;;;;;;;;;6150824;23;20025;-50
2022/07/21 10:58:11;;;;;;;10.52;6.72;;;;;;;;;;6152731;23;20026;-54
2022/07/21 11:00:39;;;;;;;8.75;5.60;;;;;;;;;;6151834;23;20056;-53
2022/07/21 11:03:21;;;;;;;9.00;5.72;;;;;;;;;;6151588;23;20514;-59
2022/07/21 11:06:07;;;;;;;7.90;5.68;;;;;;;;;;6151495;23;20041;-59
2022/07/21 11:08:36;;;;;;;7.45;5.35;;;;;;;;;;6152603;23;20056;-59
2022/07/21 11:11:10;;;;;;;8.13;5.50;;;;;;;;;;6151473;23;20021;-59
2022/07/21 11:13:56;;;;;;;9.40;5.88;;;;;;;;;;6152098;23;20025;-58
2022/07/21 11:17:04;;;;;;;12.68;6.32;;;;;;;;;;6151764;23;20026;-60
2022/07/21 11:19:53;;;;;;;8.68;5.40;;;;;;;;;;6151159;23;20025;-59
2022/07/21 11:22:28;;;;;;;8.65;5.70;;;;;;;;;;6151689;23;20088;-52
2022/07/21 11:25:04;;;;;;;10.15;5.40;;;;;;;;;;6151679;23;20573;-60
2022/07/21 11:27:32;;;;;;;12.75;5.80;;;;;;;;;;6151722;23;20025;-61
2022/07/21 11:30:00;;;;;;;8.88;5.63;;;;;;;;;;6150814;23;20049;-61
2022/07/21 11:32:28;;;;;;;8.82;6.10;;;;;;;;;;6151311;23;20089;-61
2022/07/21 11:34:56;;;;;;;9.80;5.90;;;;;;;;;;6150421;23;20033;-60
2022/07/21 11:37:32;;;;;;;10.52;5.53;;;;;;;;;;6151395;23;20029;-61
2022/07/21 11:40:05;;;;;;;7.82;5.40;;;;;;;;;;6149043;23;20025;-48
2022/07/21 11:42:33;;;;;;;10.73;5.65;;;;;;;;;;6150610;23;20022;-57
2022/07/21 11:45:01;;;;;;;15.05;5.78;;;;;;;;;;6150268;23;20727;-55
2022/07/21 11:47:28;;;;;;;9.27;5.57;;;;;;;;;;6150970;23;20017;-55
2022/07/21 11:49:57;;;;;;;12.30;5.85;;;;;;;;;;6150305;23;20087;-54
2022/07/21 11:52:29;;;;;;;12.45;5.15;;;;;;;;;;6150171;23;20055;-56
2022/07/21 11:54:57;;;;;;;10.13;5.85;;;;;;;;;;6150888;23;20025;-54
2022/07/21 11:57:25;;;;;;;10.95;5.68;;;;;;;;;;6150764;23;20021;-55
2022/07/21 11:59:53;;;;;;;9.18;6.10;;;;;;;;;;6150750;23;20091;-58
2022/07/21 12:02:21;;;;;;;10.40;6.28;;;;;;;;;;6149544;23;20025;-55
2022/07/21 12:04:56;;;;;;;14.25;6.28;;;;;;;;;;6150795;23;20026;-59
2022/07/21 12:07:24;;;;;;;12.05;5.50;;;;;;;;;;6150708;23;20025;-59
2022/07/21 12:09:53;;;;;;;8.30;5.63;;;;;;;;;;6150634;23;20025;-59
2022/07/21 12:12:30;;;;;;;11.32;5.70;;;;;;;;;;6150483;23;20022;-59
2022/07/21 12:14:58;;;;;;;11.90;5.97;;;;;;;;;;6149929;23;20021;-59
2022/07/21 12:17:33;;;;;;;9.38;6.13;;;;;;;;;;6149313;23;20025;-59
2022/07/21 12:20:00;;;;;;;8.10;5.32;;;;;;;;;;6149665;23;20026;-54
2022/07/21 12:22:39;;;;;;;11.05;5.72;;;;;;;;;;6150109;23;20096;-59
2022/07/21 12:25:07;;;;;;;14.73;6.05;;;;;;;;;;6149027;23;20033;-59
2022/07/21 12:27:35;;;;;;;8.52;5.80;;;;;;;;;;6149856;23;20033;-58
2022/07/21 12:30:04;;;;;;;8.75;6.35;;;;;;;;;;6150040;23;20223;-59
2022/07/21 12:32:38;;;;;;;9.27;5.93;;;;;;;;;;6150111;23;20025;-58
2022/07/21 12:35:06;;;;;;;13.77;5.85;;;;;;;;;;6149645;23;20029;-57
2022/07/21 12:37:55;;;;;;;7.90;5.82;;;;;;;;;;6150009;23;20045;-54
2022/07/21 12:40:26;;;;;;;11.25;6.20;;;;;;;;;;6149665;23;20025;-51
2022/07/21 12:43:16;;;;;;;7.43;5.55;;;;;;;;;;6151020;23;20466;-55
2022/07/21 12:45:47;;;;;;;11.43;5.45;;;;;;;;;;6148356;23;20065;-55
2022/07/21 12:48:17;;;;;;;12.75;5.68;;;;;;;;;;6149158;23;20057;-56
2022/07/21 12:51:00;;;;;;;11.60;6.18;;;;;;;;;;6149396;23;20076;-52
2022/07/21 12:53:28;;;;;;;11.88;5.75;;;;;;;;;;6148857;23;20021;-51
2022/07/21 12:55:55;;;;;;;16.45;6.47;;;;;;;;;;6149414;23;20030;-60
2022/07/21 12:58:22;;;;;;;8.93;5.70;;;;;;;;;;6149507;23;20025;-54
2022/07/21 13:00:50;;;;;;;10.70;6.13;;;;;;;;;;6149725;23;20025;-50
2022/07/21 13:03:17;;;;;;;9.65;6.18;;;;;;;;;;6149691;23;20077;-53
2022/07/21 13:05:45;;;;;;;10.70;6.15;;;;;;;;;;6149894;23;20052;-49
2022/07/21 13:08:12;;;;;;;13.75;6.50;;;;;;;;;;6149617;23;20024;-49
2022/07/21 13:10:40;;;;;;;9.48;6.20;;;;;;;;;;6149264;23;20443;-53
2022/07/21 13:13:07;;;;;;;12.40;6.18;;;;;;;;;;6150152;23;20021;-52
2022/07/21 13:15:34;;;;;;;12.88;6.22;;;;;;;;;;6149412;23;20051;-53
2022/07/21 13:18:02;;;;;;;7.80;6.22;;;;;;;;;;6148076;23;20105;-58
2022/07/21 13:20:29;;;;;;;15.18;6.68;;;;;;;;;;6150129;23;20072;-57
2022/07/21 13:22:57;;;;;;;11.90;6.30;;;;;;;;;;6150330;23;20025;-57
2022/07/21 13:25:24;;;;;;;11.40;6.75;;;;;;;;;;6149851;23;20026;-59
2022/07/21 13:27:58;;;;;;;11.98;6.22;;;;;;;;;;6150094;23;20021;-58
2022/07/21 13:30:25;;;;;;;10.30;6.40;;;;;;;;;;6149899;23;20032;-58
2022/07/21 13:32:52;;;;;;;12.77;6.20;;;;;;;;;;6150562;23;20026;-58
2022/07/21 13:35:20;;;;;;;11.63;7.00;;;;;;;;;;6149750;23;20021;-52
2022/07/21 13:37:56;;;;;;;11.68;6.18;;;;;;;;;;6150379;23;20036;-60
2022/07/21 13:40:24;;;;;;;14.90;6.22;;;;;;;;;;6149049;23;20029;-60
2022/07/21 13:43:12;;;;;;;9.50;6.25;;;;;;;;;;6150330;23;20337;-61
2022/07/21 13:45:59;;;;;;;11.05;6.63;;;;;;;;;;6148517;23;20025;-60
2022/07/21 13:48:27;;;;;;;11.40;6.55;;;;;;;;;;6149653;23;20021;-60
2022/07/21 13:50:55;;;;;;;9.98;6.20;;;;;;;;;;6150013;23;20080;-60
2022/07/21 13:53:22;;;;;;;11.25;6.45;;;;;;;;;;6149175;23;20457;-50
2022/07/21 13:55:53;;;;;;;11.65;6.13;;;;;;;;;;6148938;23;20088;-58
2022/07/21 13:58:20;;;;;;;8.88;5.93;;;;;;;;;;6150634;23;20036;-52
2022/07/21 14:00:47;;;;;;;10.18;6.65;;;;;;;;;;6149675;23;20064;-53
2022/07/21 14:03:15;;;;;;;11.98;6.40;;;;;;;;;;6148673;23;20033;-48
2022/07/21 14:05:42;;;;;;;11.27;6.47;;;;;;;;;;6148734;23;20092;-53
2022/07/21 14:08:09;;;;;;;11.63;6.72;;;;;;;;;;6150454;23;20025;-53
2022/07/21 14:10:37;;;;;;;10.60;7.00;;;;;;;;;;6149104;23;20084;-53
2022/07/21 14:13:05;;;;;;;11.77;7.30;;;;;;;;;;6150657;23;20204;-52
2022/07/21 14:15:32;;;;;;;9.32;6.63;;;;;;;;;;6148398;23;20101;-51
2022/07/21 14:17:59;;;;;;;8.85;6.68;;;;;;;;;;6149615;23;20391;-59
2022/07/21 14:20:27;;;;;;;10.73;6.97;;;;;;;;;;6149101;23;20096;-59
2022/07/21 14:22:56;;;;;;;14.68;6.82;;;;;;;;;;6150804;23;20022;-60
2022/07/21 14:25:24;;;;;;;16.17;7.38;;;;;;;;;;6148191;23;20053;-59
2022/07/21 14:27:55;;;;;;;14.52;7.38;;;;;;;;;;6150679;23;20022;-59
2022/07/21 14:30:23;;;;;;;11.90;7.78;;;;;;;;;;6148534;23;20029;-59
2022/07/21 14:32:50;;;;;;;11.65;8.27;;;;;;;;;;6150097;23;20533;-58
2022/07/21 14:35:19;;;;;;;13.30;8.20;;;;;;;;;;6149173;23;20029;-55
2022/07/21 14:37:50;;;;;;;15.07;8.63;;;;;;;;;;6150244;23;20025;-58
2022/07/21 14:40:18;;;;;;;13.63;8.80;;;;;;;;;;6148485;23;20036;-57
2022/07/21 14:42:47;;;;;;;13.82;9.57;;;;;;;;;;6149024;23;20463;-57
2022/07/21 14:45:15;;;;;;;11.43;8.80;;;;;;;;;;6149686;23;20037;-58
2022/07/21 14:47:49;;;;;;;15.80;9.52;;;;;;;;;;6149788;23;20100;-56
2022/07/21 14:50:17;;;;;;;11.02;8.98;;;;;;;;;;6149578;23;20073;-59
2022/07/21 14:52:52;;;;;;;12.02;9.40;;;;;;;;;;6149192;23;20017;-58
2022/07/21 14:55:22;;;;;;;16.17;9.75;;;;;;;;;;6148331;23;20079;-61
2022/07/21 14:57:50;;;;;;;14.50;9.38;;;;;;;;;;6149748;23;20072;-60